sensor_id;sensor_type;location;lat;lon;timestamp;P1;durP1;ratioP1;P2;durP2;ratioP2
351;SDS011;164;50.784;6.496;2023-03-31T00:01:25;8.70;;;4.10;;
351;SDS011;164;50.784;6.496;2023-03-31T00:03:53;6.28;;;3.90;;
351;SDS011;164;50.784;6.496;2023-03-31T00:06:29;6.40;;;3.30;;
351;SDS011;164;50.784;6.496;2023-03-31T00:08:57;6.63;;;2.10;;
351;SDS011;164;50.784;6.496;2023-03-31T00:11:26;4.35;;;1.52;;
351;SDS011;164;50.784;6.496;2023-03-31T00:13:54;5.35;;;1.55;;
351;SDS011;164;50.784;6.496;2023-03-31T00:16:21;4.97;;;1.83;;
351;SDS011;164;50.784;6.496;2023-03-31T00:18:49;2.22;;;1.42;;
351;SDS011;164;50.784;6.496;2023-03-31T00:21:18;4.03;;;1.30;;
351;SDS011;164;50.784;6.496;2023-03-31T00:23:55;6.30;;;1.45;;
351;SDS011;164;50.784;6.496;2023-03-31T00:26:23;6.30;;;1.65;;
351;SDS011;164;50.784;6.496;2023-03-31T00:28:51;5.97;;;2.08;;
351;SDS011;164;50.784;6.496;2023-03-31T00:31:18;7.47;;;2.50;;
351;SDS011;164;50.784;6.496;2023-03-31T00:33:46;9.50;;;2.60;;
351;SDS011;164;50.784;6.496;2023-03-31T00:36:13;9.82;;;1.95;;
351;SDS011;164;50.784;6.496;2023-03-31T00:38:45;4.32;;;2.35;;
351;SDS011;164;50.784;6.496;2023-03-31T00:41:14;9.63;;;2.83;;
351;SDS011;164;50.784;6.496;2023-03-31T00:46:24;9.93;;;3.13;;
351;SDS011;164;50.784;6.496;2023-03-31T00:48:54;8.45;;;2.65;;
351;SDS011;164;50.784;6.496;2023-03-31T00:51:22;8.32;;;3.10;;
351;SDS011;164;50.784;6.496;2023-03-31T00:53:51;7.50;;;3.63;;
351;SDS011;164;50.784;6.496;2023-03-31T00:56:23;11.82;;;4.03;;
351;SDS011;164;50.784;6.496;2023-03-31T00:58:50;7.90;;;2.97;;
351;SDS011;164;50.784;6.496;2023-03-31T01:01:22;8.82;;;3.70;;
351;SDS011;164;50.784;6.496;2023-03-31T01:03:50;13.15;;;4.60;;
351;SDS011;164;50.784;6.496;2023-03-31T01:06:17;7.88;;;4.55;;
351;SDS011;164;50.784;6.496;2023-03-31T01:08:46;13.57;;;6.15;;
351;SDS011;164;50.784;6.496;2023-03-31T01:11:14;12.02;;;5.70;;
351;SDS011;164;50.784;6.496;2023-03-31T01:13:43;14.85;;;5.55;;
351;SDS011;164;50.784;6.496;2023-03-31T01:16:14;7.95;;;5.00;;
351;SDS011;164;50.784;6.496;2023-03-31T01:18:41;10.70;;;4.35;;
351;SDS011;164;50.784;6.496;2023-03-31T01:24:00;13.13;;;5.57;;
351;SDS011;164;50.784;6.496;2023-03-31T01:26:48;10.18;;;4.40;;
351;SDS011;164;50.784;6.496;2023-03-31T01:29:29;8.07;;;3.75;;
351;SDS011;164;50.784;6.496;2023-03-31T01:32:12;6.82;;;3.13;;
351;SDS011;164;50.784;6.496;2023-03-31T01:37:41;12.70;;;4.63;;
351;SDS011;164;50.784;6.496;2023-03-31T01:43:13;7.95;;;2.75;;
351;SDS011;164;50.784;6.496;2023-03-31T01:45:45;7.90;;;3.40;;
351;SDS011;164;50.784;6.496;2023-03-31T01:48:14;6.55;;;3.60;;
351;SDS011;164;50.784;6.496;2023-03-31T01:50:44;10.68;;;3.03;;
351;SDS011;164;50.784;6.496;2023-03-31T01:53:14;12.82;;;3.90;;
351;SDS011;164;50.784;6.496;2023-03-31T01:55:44;6.90;;;3.72;;
351;SDS011;164;50.784;6.496;2023-03-31T01:58:15;8.25;;;3.30;;
351;SDS011;164;50.784;6.496;2023-03-31T02:00:46;8.77;;;3.40;;
351;SDS011;164;50.784;6.496;2023-03-31T02:03:16;8.15;;;3.03;;
351;SDS011;164;50.784;6.496;2023-03-31T02:05:46;5.40;;;3.00;;
351;SDS011;164;50.784;6.496;2023-03-31T02:08:15;5.38;;;2.40;;
351;SDS011;164;50.784;6.496;2023-03-31T02:10:43;9.25;;;2.30;;
351;SDS011;164;50.784;6.496;2023-03-31T02:13:11;6.82;;;2.20;;
351;SDS011;164;50.784;6.496;2023-03-31T02:15:41;4.78;;;2.20;;
351;SDS011;164;50.784;6.496;2023-03-31T02:18:12;5.47;;;1.90;;
351;SDS011;164;50.784;6.496;2023-03-31T02:20:41;8.00;;;1.92;;
351;SDS011;164;50.784;6.496;2023-03-31T02:23:10;9.98;;;2.10;;
351;SDS011;164;50.784;6.496;2023-03-31T02:25:41;8.88;;;2.25;;
351;SDS011;164;50.784;6.496;2023-03-31T02:28:12;3.83;;;1.95;;
351;SDS011;164;50.784;6.496;2023-03-31T02:30:44;4.07;;;1.98;;
351;SDS011;164;50.784;6.496;2023-03-31T02:33:12;5.38;;;1.95;;
351;SDS011;164;50.784;6.496;2023-03-31T02:35:41;3.38;;;2.13;;
351;SDS011;164;50.784;6.496;2023-03-31T02:38:08;4.28;;;1.40;;
351;SDS011;164;50.784;6.496;2023-03-31T02:40:35;10.45;;;2.45;;
351;SDS011;164;50.784;6.496;2023-03-31T02:43:03;3.85;;;1.77;;
351;SDS011;164;50.784;6.496;2023-03-31T02:45:38;4.05;;;1.90;;
351;SDS011;164;50.784;6.496;2023-03-31T02:48:08;8.48;;;2.30;;
351;SDS011;164;50.784;6.496;2023-03-31T02:50:40;4.60;;;2.65;;
351;SDS011;164;50.784;6.496;2023-03-31T02:53:12;5.15;;;1.92;;
351;SDS011;164;50.784;6.496;2023-03-31T02:55:52;3.88;;;2.13;;
351;SDS011;164;50.784;6.496;2023-03-31T03:01:10;4.15;;;2.10;;
351;SDS011;164;50.784;6.496;2023-03-31T03:03:47;4.20;;;1.80;;
351;SDS011;164;50.784;6.496;2023-03-31T03:06:19;4.70;;;1.80;;
351;SDS011;164;50.784;6.496;2023-03-31T03:09:01;2.55;;;1.52;;
351;SDS011;164;50.784;6.496;2023-03-31T03:11:31;3.28;;;1.70;;
351;SDS011;164;50.784;6.496;2023-03-31T03:14:03;4.13;;;2.03;;
351;SDS011;164;50.784;6.496;2023-03-31T03:16:32;2.92;;;1.20;;
351;SDS011;164;50.784;6.496;2023-03-31T03:19:04;3.05;;;1.50;;
351;SDS011;164;50.784;6.496;2023-03-31T03:21:32;3.28;;;1.35;;
351;SDS011;164;50.784;6.496;2023-03-31T03:23:59;3.63;;;1.40;;
351;SDS011;164;50.784;6.496;2023-03-31T03:26:26;3.83;;;1.02;;
351;SDS011;164;50.784;6.496;2023-03-31T03:28:54;1.80;;;1.02;;
351;SDS011;164;50.784;6.496;2023-03-31T03:31:22;2.95;;;0.95;;
351;SDS011;164;50.784;6.496;2023-03-31T03:33:50;1.65;;;1.23;;
351;SDS011;164;50.784;6.496;2023-03-31T03:36:18;2.55;;;1.23;;
351;SDS011;164;50.784;6.496;2023-03-31T03:38:47;2.80;;;1.30;;
351;SDS011;164;50.784;6.496;2023-03-31T03:41:15;3.63;;;1.17;;
351;SDS011;164;50.784;6.496;2023-03-31T03:43:42;2.25;;;0.95;;
351;SDS011;164;50.784;6.496;2023-03-31T03:46:09;2.28;;;1.13;;
351;SDS011;164;50.784;6.496;2023-03-31T03:48:37;3.42;;;1.50;;
351;SDS011;164;50.784;6.496;2023-03-31T03:51:04;2.55;;;1.10;;
351;SDS011;164;50.784;6.496;2023-03-31T03:59:12;3.88;;;1.05;;
351;SDS011;164;50.784;6.496;2023-03-31T04:01:39;1.60;;;1.10;;
351;SDS011;164;50.784;6.496;2023-03-31T04:04:06;3.03;;;1.23;;
351;SDS011;164;50.784;6.496;2023-03-31T04:06:34;2.72;;;0.93;;
351;SDS011;164;50.784;6.496;2023-03-31T04:09:01;2.13;;;1.02;;
351;SDS011;164;50.784;6.496;2023-03-31T04:11:29;3.20;;;0.73;;
351;SDS011;164;50.784;6.496;2023-03-31T04:13:56;2.95;;;0.70;;
351;SDS011;164;50.784;6.496;2023-03-31T04:16:25;3.08;;;1.15;;
351;SDS011;164;50.784;6.496;2023-03-31T04:18:52;2.45;;;0.95;;
351;SDS011;164;50.784;6.496;2023-03-31T04:21:21;2.83;;;1.55;;
351;SDS011;164;50.784;6.496;2023-03-31T04:23:48;1.80;;;1.13;;
351;SDS011;164;50.784;6.496;2023-03-31T04:26:23;2.97;;;1.20;;
351;SDS011;164;50.784;6.496;2023-03-31T04:28:54;3.05;;;1.05;;
351;SDS011;164;50.784;6.496;2023-03-31T04:31:25;1.08;;;0.90;;
351;SDS011;164;50.784;6.496;2023-03-31T04:33:55;3.35;;;1.40;;
351;SDS011;164;50.784;6.496;2023-03-31T04:36:25;5.40;;;1.77;;
351;SDS011;164;50.784;6.496;2023-03-31T04:38:53;3.42;;;1.23;;
351;SDS011;164;50.784;6.496;2023-03-31T04:41:26;3.28;;;1.00;;
351;SDS011;164;50.784;6.496;2023-03-31T04:43:53;1.38;;;0.80;;
351;SDS011;164;50.784;6.496;2023-03-31T04:46:21;1.98;;;0.60;;
351;SDS011;164;50.784;6.496;2023-03-31T04:48:50;1.83;;;1.00;;
351;SDS011;164;50.784;6.496;2023-03-31T04:51:18;2.22;;;1.30;;
351;SDS011;164;50.784;6.496;2023-03-31T04:53:45;2.95;;;1.05;;
351;SDS011;164;50.784;6.496;2023-03-31T04:56:13;2.28;;;1.20;;
351;SDS011;164;50.784;6.496;2023-03-31T04:58:40;3.08;;;1.20;;
351;SDS011;164;50.784;6.496;2023-03-31T05:01:08;2.53;;;1.40;;
351;SDS011;164;50.784;6.496;2023-03-31T05:03:37;3.70;;;1.63;;
351;SDS011;164;50.784;6.496;2023-03-31T05:06:07;4.75;;;2.05;;
351;SDS011;164;50.784;6.496;2023-03-31T05:08:34;3.05;;;1.35;;
351;SDS011;164;50.784;6.496;2023-03-31T05:11:01;2.88;;;1.30;;
351;SDS011;164;50.784;6.496;2023-03-31T05:13:29;2.95;;;1.20;;
351;SDS011;164;50.784;6.496;2023-03-31T05:15:56;4.03;;;1.70;;
351;SDS011;164;50.784;6.496;2023-03-31T05:18:23;1.80;;;1.10;;
351;SDS011;164;50.784;6.496;2023-03-31T05:20:50;2.72;;;1.45;;
351;SDS011;164;50.784;6.496;2023-03-31T05:23:19;2.80;;;1.30;;
351;SDS011;164;50.784;6.496;2023-03-31T05:25:46;1.77;;;0.90;;
351;SDS011;164;50.784;6.496;2023-03-31T05:28:13;1.80;;;1.05;;
351;SDS011;164;50.784;6.496;2023-03-31T05:30:41;3.42;;;1.30;;
351;SDS011;164;50.784;6.496;2023-03-31T05:33:08;2.83;;;1.30;;
351;SDS011;164;50.784;6.496;2023-03-31T05:35:36;2.08;;;1.60;;
351;SDS011;164;50.784;6.496;2023-03-31T05:38:03;2.10;;;1.30;;
351;SDS011;164;50.784;6.496;2023-03-31T05:40:31;3.97;;;1.40;;
351;SDS011;164;50.784;6.496;2023-03-31T05:42:59;1.80;;;1.15;;
351;SDS011;164;50.784;6.496;2023-03-31T05:45:26;3.08;;;1.33;;
351;SDS011;164;50.784;6.496;2023-03-31T05:47:53;3.30;;;2.58;;
351;SDS011;164;50.784;6.496;2023-03-31T05:50:20;3.00;;;1.33;;
351;SDS011;164;50.784;6.496;2023-03-31T05:52:48;3.28;;;1.40;;
351;SDS011;164;50.784;6.496;2023-03-31T05:55:15;3.50;;;1.10;;
351;SDS011;164;50.784;6.496;2023-03-31T05:57:44;1.95;;;1.60;;
351;SDS011;164;50.784;6.496;2023-03-31T06:00:11;4.07;;;1.83;;
351;SDS011;164;50.784;6.496;2023-03-31T06:02:40;1.33;;;0.90;;
351;SDS011;164;50.784;6.496;2023-03-31T06:05:07;1.02;;;0.50;;
351;SDS011;164;50.784;6.496;2023-03-31T06:07:35;1.13;;;0.50;;
351;SDS011;164;50.784;6.496;2023-03-31T06:10:02;0.50;;;0.30;;
351;SDS011;164;50.784;6.496;2023-03-31T06:12:32;1.60;;;0.57;;
351;SDS011;164;50.784;6.496;2023-03-31T06:15:00;1.20;;;0.90;;
351;SDS011;164;50.784;6.496;2023-03-31T06:17:28;1.50;;;0.85;;
351;SDS011;164;50.784;6.496;2023-03-31T06:19:55;0.80;;;0.70;;
351;SDS011;164;50.784;6.496;2023-03-31T06:22:22;3.72;;;1.55;;
351;SDS011;164;50.784;6.496;2023-03-31T06:24:50;1.80;;;1.75;;
351;SDS011;164;50.784;6.496;2023-03-31T06:27:17;2.55;;;1.58;;
351;SDS011;164;50.784;6.496;2023-03-31T06:29:44;2.55;;;1.23;;
351;SDS011;164;50.784;6.496;2023-03-31T06:32:14;2.35;;;1.60;;
351;SDS011;164;50.784;6.496;2023-03-31T06:34:41;2.33;;;1.08;;
351;SDS011;164;50.784;6.496;2023-03-31T06:37:08;0.90;;;0.70;;
351;SDS011;164;50.784;6.496;2023-03-31T06:39:36;1.90;;;0.90;;
351;SDS011;164;50.784;6.496;2023-03-31T06:42:03;3.58;;;0.80;;
351;SDS011;164;50.784;6.496;2023-03-31T06:44:31;1.90;;;0.98;;
351;SDS011;164;50.784;6.496;2023-03-31T06:46:58;0.80;;;0.52;;
351;SDS011;164;50.784;6.496;2023-03-31T06:49:27;1.77;;;0.80;;
351;SDS011;164;50.784;6.496;2023-03-31T06:51:54;2.45;;;0.70;;
351;SDS011;164;50.784;6.496;2023-03-31T06:54:22;1.30;;;0.85;;
351;SDS011;164;50.784;6.496;2023-03-31T06:56:50;3.08;;;1.20;;
351;SDS011;164;50.784;6.496;2023-03-31T06:59:17;1.95;;;0.70;;
351;SDS011;164;50.784;6.496;2023-03-31T07:01:44;1.02;;;0.82;;
351;SDS011;164;50.784;6.496;2023-03-31T07:04:12;3.05;;;1.48;;
351;SDS011;164;50.784;6.496;2023-03-31T07:06:41;2.55;;;0.90;;
351;SDS011;164;50.784;6.496;2023-03-31T07:09:08;2.03;;;1.23;;
351;SDS011;164;50.784;6.496;2023-03-31T07:11:36;3.13;;;1.20;;
351;SDS011;164;50.784;6.496;2023-03-31T07:14:03;7.97;;;1.73;;
351;SDS011;164;50.784;6.496;2023-03-31T07:16:30;3.13;;;1.70;;
351;SDS011;164;50.784;6.496;2023-03-31T07:18:58;3.88;;;1.70;;
351;SDS011;164;50.784;6.496;2023-03-31T07:21:28;2.50;;;1.85;;
351;SDS011;164;50.784;6.496;2023-03-31T07:23:57;3.30;;;1.70;;
351;SDS011;164;50.784;6.496;2023-03-31T07:26:24;1.40;;;1.20;;
351;SDS011;164;50.784;6.496;2023-03-31T07:28:52;2.72;;;2.05;;
351;SDS011;164;50.784;6.496;2023-03-31T07:31:21;3.85;;;2.20;;
351;SDS011;164;50.784;6.496;2023-03-31T07:33:48;4.43;;;1.73;;
351;SDS011;164;50.784;6.496;2023-03-31T07:36:15;5.63;;;1.88;;
351;SDS011;164;50.784;6.496;2023-03-31T07:38:43;7.18;;;2.75;;
351;SDS011;164;50.784;6.496;2023-03-31T07:41:15;2.92;;;2.05;;
351;SDS011;164;50.784;6.496;2023-03-31T07:43:42;3.40;;;1.55;;
351;SDS011;164;50.784;6.496;2023-03-31T07:46:13;3.47;;;2.05;;
351;SDS011;164;50.784;6.496;2023-03-31T07:48:41;5.18;;;1.70;;
351;SDS011;164;50.784;6.496;2023-03-31T07:51:08;4.70;;;2.45;;
351;SDS011;164;50.784;6.496;2023-03-31T07:53:35;4.75;;;2.45;;
351;SDS011;164;50.784;6.496;2023-03-31T07:56:03;3.55;;;2.20;;
351;SDS011;164;50.784;6.496;2023-03-31T07:58:31;3.92;;;1.83;;
351;SDS011;164;50.784;6.496;2023-03-31T08:00:59;2.40;;;1.20;;
351;SDS011;164;50.784;6.496;2023-03-31T08:03:26;4.10;;;1.92;;
351;SDS011;164;50.784;6.496;2023-03-31T08:05:54;5.97;;;3.10;;
351;SDS011;164;50.784;6.496;2023-03-31T08:08:21;7.95;;;2.72;;
351;SDS011;164;50.784;6.496;2023-03-31T08:10:49;7.53;;;2.50;;
351;SDS011;164;50.784;6.496;2023-03-31T08:13:16;5.88;;;2.65;;
351;SDS011;164;50.784;6.496;2023-03-31T08:15:45;7.43;;;2.63;;
351;SDS011;164;50.784;6.496;2023-03-31T08:18:14;3.85;;;2.00;;
351;SDS011;164;50.784;6.496;2023-03-31T08:20:41;7.65;;;2.35;;
351;SDS011;164;50.784;6.496;2023-03-31T08:23:09;7.25;;;2.85;;
351;SDS011;164;50.784;6.496;2023-03-31T08:25:36;6.28;;;2.90;;
351;SDS011;164;50.784;6.496;2023-03-31T08:28:03;8.30;;;3.65;;
351;SDS011;164;50.784;6.496;2023-03-31T08:30:31;3.85;;;2.08;;
351;SDS011;164;50.784;6.496;2023-03-31T08:33:00;6.85;;;3.55;;
351;SDS011;164;50.784;6.496;2023-03-31T08:35:27;11.38;;;4.32;;
351;SDS011;164;50.784;6.496;2023-03-31T08:37:55;6.55;;;2.75;;
351;SDS011;164;50.784;6.496;2023-03-31T08:40:23;5.30;;;2.25;;
351;SDS011;164;50.784;6.496;2023-03-31T08:42:52;7.32;;;2.20;;
351;SDS011;164;50.784;6.496;2023-03-31T08:45:22;4.75;;;1.90;;
351;SDS011;164;50.784;6.496;2023-03-31T08:47:51;4.03;;;3.45;;
351;SDS011;164;50.784;6.496;2023-03-31T08:50:22;10.27;;;2.38;;
351;SDS011;164;50.784;6.496;2023-03-31T08:53:02;5.78;;;2.67;;
351;SDS011;164;50.784;6.496;2023-03-31T08:55:31;6.90;;;3.17;;
351;SDS011;164;50.784;6.496;2023-03-31T08:58:02;7.18;;;2.50;;
351;SDS011;164;50.784;6.496;2023-03-31T09:00:34;6.40;;;2.75;;
351;SDS011;164;50.784;6.496;2023-03-31T09:03:04;6.82;;;2.92;;
351;SDS011;164;50.784;6.496;2023-03-31T09:05:39;4.93;;;2.03;;
351;SDS011;164;50.784;6.496;2023-03-31T09:08:12;8.30;;;3.25;;
351;SDS011;164;50.784;6.496;2023-03-31T09:10:42;5.95;;;2.10;;
351;SDS011;164;50.784;6.496;2023-03-31T09:15:57;6.82;;;3.75;;
351;SDS011;164;50.784;6.496;2023-03-31T09:18:27;10.13;;;2.92;;
351;SDS011;164;50.784;6.496;2023-03-31T09:20:58;8.85;;;2.92;;
351;SDS011;164;50.784;6.496;2023-03-31T09:23:29;4.97;;;2.58;;
351;SDS011;164;50.784;6.496;2023-03-31T09:25:59;8.52;;;3.25;;
351;SDS011;164;50.784;6.496;2023-03-31T09:28:29;5.35;;;1.90;;
351;SDS011;164;50.784;6.496;2023-03-31T09:30:56;4.75;;;2.35;;
351;SDS011;164;50.784;6.496;2023-03-31T09:33:25;6.88;;;2.45;;
351;SDS011;164;50.784;6.496;2023-03-31T09:35:57;4.65;;;2.10;;
351;SDS011;164;50.784;6.496;2023-03-31T09:38:24;6.90;;;2.75;;
351;SDS011;164;50.784;6.496;2023-03-31T09:40:54;9.02;;;2.20;;
351;SDS011;164;50.784;6.496;2023-03-31T09:43:22;7.15;;;2.33;;
351;SDS011;164;50.784;6.496;2023-03-31T09:45:50;11.68;;;3.38;;
351;SDS011;164;50.784;6.496;2023-03-31T09:48:18;10.25;;;3.20;;
351;SDS011;164;50.784;6.496;2023-03-31T09:50:46;9.10;;;2.95;;
351;SDS011;164;50.784;6.496;2023-03-31T09:53:17;9.25;;;3.05;;
351;SDS011;164;50.784;6.496;2023-03-31T09:55:48;10.25;;;3.22;;
351;SDS011;164;50.784;6.496;2023-03-31T09:58:16;5.55;;;2.13;;
351;SDS011;164;50.784;6.496;2023-03-31T10:00:54;7.22;;;3.35;;
351;SDS011;164;50.784;6.496;2023-03-31T10:03:22;6.95;;;2.88;;
351;SDS011;164;50.784;6.496;2023-03-31T10:05:53;5.95;;;2.80;;
351;SDS011;164;50.784;6.496;2023-03-31T10:08:23;7.00;;;3.03;;
351;SDS011;164;50.784;6.496;2023-03-31T10:10:52;6.97;;;2.40;;
351;SDS011;164;50.784;6.496;2023-03-31T10:13:21;7.85;;;2.67;;
351;SDS011;164;50.784;6.496;2023-03-31T10:15:51;7.05;;;3.28;;
351;SDS011;164;50.784;6.496;2023-03-31T10:18:19;4.70;;;1.52;;
351;SDS011;164;50.784;6.496;2023-03-31T10:20:48;7.65;;;2.10;;
351;SDS011;164;50.784;6.496;2023-03-31T10:23:18;5.38;;;2.30;;
351;SDS011;164;50.784;6.496;2023-03-31T10:25:51;4.57;;;1.63;;
351;SDS011;164;50.784;6.496;2023-03-31T10:28:19;5.32;;;2.80;;
351;SDS011;164;50.784;6.496;2023-03-31T10:30:47;6.07;;;2.22;;
351;SDS011;164;50.784;6.496;2023-03-31T10:33:16;5.68;;;2.08;;
351;SDS011;164;50.784;6.496;2023-03-31T10:35:45;6.13;;;2.60;;
351;SDS011;164;50.784;6.496;2023-03-31T10:38:14;4.97;;;1.67;;
351;SDS011;164;50.784;6.496;2023-03-31T10:40:48;5.30;;;2.25;;
351;SDS011;164;50.784;6.496;2023-03-31T10:43:18;4.70;;;1.90;;
351;SDS011;164;50.784;6.496;2023-03-31T10:45:47;7.72;;;2.50;;
351;SDS011;164;50.784;6.496;2023-03-31T10:48:16;5.22;;;1.77;;
351;SDS011;164;50.784;6.496;2023-03-31T10:50:43;4.07;;;2.22;;
351;SDS011;164;50.784;6.496;2023-03-31T10:53:12;4.72;;;1.77;;
351;SDS011;164;50.784;6.496;2023-03-31T10:55:41;3.67;;;1.85;;
351;SDS011;164;50.784;6.496;2023-03-31T10:58:19;7.43;;;2.40;;
351;SDS011;164;50.784;6.496;2023-03-31T11:00:54;6.85;;;1.73;;
351;SDS011;164;50.784;6.496;2023-03-31T11:03:31;7.07;;;1.90;;
351;SDS011;164;50.784;6.496;2023-03-31T11:06:02;6.20;;;2.20;;
351;SDS011;164;50.784;6.496;2023-03-31T11:08:34;2.58;;;1.58;;
351;SDS011;164;50.784;6.496;2023-03-31T11:11:07;7.60;;;2.65;;
351;SDS011;164;50.784;6.496;2023-03-31T11:13:40;6.68;;;2.08;;
351;SDS011;164;50.784;6.496;2023-03-31T11:16:15;10.02;;;2.92;;
351;SDS011;164;50.784;6.496;2023-03-31T11:18:48;10.57;;;4.35;;
351;SDS011;164;50.784;6.496;2023-03-31T11:21:21;12.00;;;2.70;;
351;SDS011;164;50.784;6.496;2023-03-31T11:23:52;5.55;;;2.50;;
351;SDS011;164;50.784;6.496;2023-03-31T11:26:25;7.88;;;2.40;;
351;SDS011;164;50.784;6.496;2023-03-31T11:28:59;9.80;;;2.95;;
351;SDS011;164;50.784;6.496;2023-03-31T11:31:32;10.38;;;3.22;;
351;SDS011;164;50.784;6.496;2023-03-31T11:34:05;8.70;;;3.22;;
351;SDS011;164;50.784;6.496;2023-03-31T11:36:40;8.85;;;2.15;;
351;SDS011;164;50.784;6.496;2023-03-31T11:39:19;9.98;;;2.67;;
351;SDS011;164;50.784;6.496;2023-03-31T11:41:48;8.57;;;3.17;;
351;SDS011;164;50.784;6.496;2023-03-31T11:44:18;8.02;;;2.50;;
351;SDS011;164;50.784;6.496;2023-03-31T11:46:47;4.45;;;2.20;;
351;SDS011;164;50.784;6.496;2023-03-31T11:49:15;6.15;;;1.60;;
351;SDS011;164;50.784;6.496;2023-03-31T11:51:46;3.90;;;2.00;;
351;SDS011;164;50.784;6.496;2023-03-31T11:54:16;5.05;;;1.85;;
351;SDS011;164;50.784;6.496;2023-03-31T11:56:44;4.88;;;1.90;;
351;SDS011;164;50.784;6.496;2023-03-31T11:59:13;5.63;;;2.95;;
351;SDS011;164;50.784;6.496;2023-03-31T12:01:43;9.85;;;2.40;;
351;SDS011;164;50.784;6.496;2023-03-31T12:04:18;4.63;;;2.13;;
351;SDS011;164;50.784;6.496;2023-03-31T12:06:49;4.78;;;1.70;;
351;SDS011;164;50.784;6.496;2023-03-31T12:09:20;8.02;;;1.75;;
351;SDS011;164;50.784;6.496;2023-03-31T12:11:49;5.70;;;1.70;;
351;SDS011;164;50.784;6.496;2023-03-31T12:14:26;6.43;;;2.08;;
351;SDS011;164;50.784;6.496;2023-03-31T12:16:59;5.30;;;1.40;;
351;SDS011;164;50.784;6.496;2023-03-31T12:19:29;2.63;;;1.35;;
351;SDS011;164;50.784;6.496;2023-03-31T12:21:59;3.25;;;1.45;;
351;SDS011;164;50.784;6.496;2023-03-31T12:24:28;4.88;;;1.55;;
351;SDS011;164;50.784;6.496;2023-03-31T12:27:00;7.25;;;2.08;;
351;SDS011;164;50.784;6.496;2023-03-31T12:29:29;7.03;;;1.40;;
351;SDS011;164;50.784;6.496;2023-03-31T12:32:00;5.68;;;2.25;;
351;SDS011;164;50.784;6.496;2023-03-31T12:34:29;6.50;;;2.15;;
351;SDS011;164;50.784;6.496;2023-03-31T12:37:08;6.57;;;2.13;;
351;SDS011;164;50.784;6.496;2023-03-31T12:39:42;5.47;;;1.45;;
351;SDS011;164;50.784;6.496;2023-03-31T12:42:14;6.07;;;2.15;;
351;SDS011;164;50.784;6.496;2023-03-31T12:44:53;4.93;;;1.63;;
351;SDS011;164;50.784;6.496;2023-03-31T12:47:38;4.30;;;1.75;;
351;SDS011;164;50.784;6.496;2023-03-31T12:50:16;5.13;;;1.60;;
351;SDS011;164;50.784;6.496;2023-03-31T12:52:48;5.80;;;1.70;;
351;SDS011;164;50.784;6.496;2023-03-31T12:55:32;4.68;;;1.58;;
351;SDS011;164;50.784;6.496;2023-03-31T13:01:00;3.30;;;1.60;;
351;SDS011;164;50.784;6.496;2023-03-31T13:03:45;7.75;;;1.65;;
351;SDS011;164;50.784;6.496;2023-03-31T13:08:55;7.55;;;2.20;;
351;SDS011;164;50.784;6.496;2023-03-31T13:11:33;7.45;;;1.95;;
351;SDS011;164;50.784;6.496;2023-03-31T13:14:02;6.93;;;2.13;;
351;SDS011;164;50.784;6.496;2023-03-31T13:16:30;5.78;;;2.40;;
351;SDS011;164;50.784;6.496;2023-03-31T13:19:00;5.20;;;2.45;;
351;SDS011;164;50.784;6.496;2023-03-31T13:21:27;7.60;;;2.45;;
351;SDS011;164;50.784;6.496;2023-03-31T13:23:58;2.22;;;1.33;;
351;SDS011;164;50.784;6.496;2023-03-31T13:26:38;5.95;;;1.60;;
351;SDS011;164;50.784;6.496;2023-03-31T13:29:10;3.88;;;1.77;;
351;SDS011;164;50.784;6.496;2023-03-31T13:34:32;9.30;;;1.67;;
351;SDS011;164;50.784;6.496;2023-03-31T13:37:06;2.33;;;1.10;;
351;SDS011;164;50.784;6.496;2023-03-31T13:39:43;5.00;;;1.40;;
351;SDS011;164;50.784;6.496;2023-03-31T13:42:32;7.45;;;1.88;;
351;SDS011;164;50.784;6.496;2023-03-31T13:45:15;6.28;;;1.88;;
351;SDS011;164;50.784;6.496;2023-03-31T13:50:40;1.95;;;0.70;;
351;SDS011;164;50.784;6.496;2023-03-31T13:53:19;4.38;;;1.25;;
351;SDS011;164;50.784;6.496;2023-03-31T13:55:55;5.80;;;2.65;;
351;SDS011;164;50.784;6.496;2023-03-31T14:01:16;3.25;;;1.85;;
351;SDS011;164;50.784;6.496;2023-03-31T14:03:51;1.60;;;0.70;;
351;SDS011;164;50.784;6.496;2023-03-31T14:06:24;1.65;;;0.80;;
351;SDS011;164;50.784;6.496;2023-03-31T14:08:54;2.10;;;0.60;;
351;SDS011;164;50.784;6.496;2023-03-31T14:11:23;3.70;;;1.10;;
351;SDS011;164;50.784;6.496;2023-03-31T14:13:57;5.00;;;1.20;;
351;SDS011;164;50.784;6.496;2023-03-31T14:16:25;4.57;;;1.30;;
351;SDS011;164;50.784;6.496;2023-03-31T14:18:54;2.35;;;0.88;;
351;SDS011;164;50.784;6.496;2023-03-31T14:21:27;3.97;;;1.30;;
351;SDS011;164;50.784;6.496;2023-03-31T14:23:59;3.35;;;1.63;;
351;SDS011;164;50.784;6.496;2023-03-31T14:26:37;13.07;;;2.22;;
351;SDS011;164;50.784;6.496;2023-03-31T14:29:11;3.33;;;1.50;;
351;SDS011;164;50.784;6.496;2023-03-31T14:31:43;6.18;;;2.45;;
351;SDS011;164;50.784;6.496;2023-03-31T14:34:14;3.92;;;1.52;;
351;SDS011;164;50.784;6.496;2023-03-31T14:36:46;4.63;;;1.73;;
351;SDS011;164;50.784;6.496;2023-03-31T14:39:15;3.25;;;1.75;;
351;SDS011;164;50.784;6.496;2023-03-31T14:41:49;3.78;;;1.45;;
351;SDS011;164;50.784;6.496;2023-03-31T14:44:17;4.25;;;1.80;;
351;SDS011;164;50.784;6.496;2023-03-31T14:46:44;4.40;;;1.88;;
351;SDS011;164;50.784;6.496;2023-03-31T14:49:14;3.65;;;1.80;;
351;SDS011;164;50.784;6.496;2023-03-31T14:51:46;2.70;;;1.60;;
351;SDS011;164;50.784;6.496;2023-03-31T14:54:14;3.35;;;1.30;;
351;SDS011;164;50.784;6.496;2023-03-31T14:56:42;5.82;;;1.88;;
351;SDS011;164;50.784;6.496;2023-03-31T14:59:09;3.55;;;1.60;;
351;SDS011;164;50.784;6.496;2023-03-31T15:01:37;2.75;;;1.05;;
351;SDS011;164;50.784;6.496;2023-03-31T15:04:05;3.00;;;1.55;;
351;SDS011;164;50.784;6.496;2023-03-31T15:06:33;3.53;;;1.77;;
351;SDS011;164;50.784;6.496;2023-03-31T15:09:05;2.80;;;1.35;;
351;SDS011;164;50.784;6.496;2023-03-31T15:11:32;5.30;;;1.90;;
351;SDS011;164;50.784;6.496;2023-03-31T15:14:00;3.00;;;1.08;;
351;SDS011;164;50.784;6.496;2023-03-31T15:16:29;2.92;;;1.45;;
351;SDS011;164;50.784;6.496;2023-03-31T15:18:58;4.43;;;2.55;;
351;SDS011;164;50.784;6.496;2023-03-31T15:21:26;5.40;;;1.70;;
351;SDS011;164;50.784;6.496;2023-03-31T15:23:54;4.30;;;1.13;;
351;SDS011;164;50.784;6.496;2023-03-31T15:26:24;4.50;;;0.98;;
351;SDS011;164;50.784;6.496;2023-03-31T15:28:52;4.00;;;0.95;;
351;SDS011;164;50.784;6.496;2023-03-31T15:31:21;2.20;;;0.90;;
351;SDS011;164;50.784;6.496;2023-03-31T15:33:51;2.55;;;1.23;;
351;SDS011;164;50.784;6.496;2023-03-31T15:36:19;2.38;;;0.80;;
351;SDS011;164;50.784;6.496;2023-03-31T15:38:46;4.40;;;0.95;;
351;SDS011;164;50.784;6.496;2023-03-31T15:41:21;7.07;;;1.23;;
351;SDS011;164;50.784;6.496;2023-03-31T15:44:01;2.97;;;1.15;;
351;SDS011;164;50.784;6.496;2023-03-31T15:49:17;3.03;;;1.00;;
351;SDS011;164;50.784;6.496;2023-03-31T15:51:45;3.40;;;1.15;;
351;SDS011;164;50.784;6.496;2023-03-31T15:54:25;1.73;;;0.68;;
351;SDS011;164;50.784;6.496;2023-03-31T15:56:55;2.15;;;1.00;;
351;SDS011;164;50.784;6.496;2023-03-31T15:59:27;5.85;;;1.55;;
351;SDS011;164;50.784;6.496;2023-03-31T16:01:55;2.25;;;1.35;;
351;SDS011;164;50.784;6.496;2023-03-31T16:04:24;2.95;;;1.08;;
351;SDS011;164;50.784;6.496;2023-03-31T16:06:55;1.63;;;1.27;;
351;SDS011;164;50.784;6.496;2023-03-31T16:09:26;3.47;;;1.55;;
351;SDS011;164;50.784;6.496;2023-03-31T16:11:56;1.85;;;0.85;;
351;SDS011;164;50.784;6.496;2023-03-31T16:14:27;3.35;;;1.80;;
351;SDS011;164;50.784;6.496;2023-03-31T16:16:56;2.92;;;1.50;;
351;SDS011;164;50.784;6.496;2023-03-31T16:19:25;3.75;;;1.90;;
351;SDS011;164;50.784;6.496;2023-03-31T16:21:53;9.27;;;2.75;;
351;SDS011;164;50.784;6.496;2023-03-31T16:24:27;5.25;;;3.60;;
351;SDS011;164;50.784;6.496;2023-03-31T16:26:57;3.55;;;1.80;;
351;SDS011;164;50.784;6.496;2023-03-31T16:29:24;4.45;;;1.98;;
351;SDS011;164;50.784;6.496;2023-03-31T16:32:06;8.18;;;3.95;;
351;SDS011;164;50.784;6.496;2023-03-31T16:34:33;4.40;;;2.90;;
351;SDS011;164;50.784;6.496;2023-03-31T16:37:01;6.63;;;2.65;;
351;SDS011;164;50.784;6.496;2023-03-31T16:39:34;5.88;;;2.78;;
351;SDS011;164;50.784;6.496;2023-03-31T16:42:01;3.75;;;2.38;;